createdAt,value
2023-04-05T00:00:01.073Z,967.00
2023-04-05T00:01:00.888Z,966.98
2023-04-05T00:02:02.003Z,966.99
2023-04-05T00:03:01.027Z,967.00
2023-04-05T00:04:00.900Z,967.00
2023-04-05T00:05:00.852Z,967.03
2023-04-05T00:06:00.647Z,966.97
2023-04-05T00:07:00.809Z,966.98
2023-04-05T00:08:00.594Z,966.94
2023-04-05T00:09:00.506Z,966.93
2023-04-05T00:10:01.853Z,966.94
2023-04-05T00:11:00.410Z,966.95
2023-04-05T00:12:00.643Z,966.98
2023-04-05T00:13:00.309Z,966.92
2023-04-05T00:14:00.353Z,966.91
2023-04-05T00:15:00.237Z,966.91
2023-04-05T00:16:00.409Z,966.90
2023-04-05T00:17:00.110Z,966.92
2023-04-05T00:18:00.290Z,966.88
2023-04-05T00:19:00.014Z,966.91
2023-04-05T00:20:00.198Z,966.85
2023-04-05T00:20:59.949Z,966.88
2023-04-05T00:22:00.427Z,966.86
2023-04-05T00:23:00.005Z,966.89
2023-04-05T00:23:59.782Z,966.91
2023-04-05T00:25:00.027Z,966.89
2023-04-05T00:25:59.712Z,966.88
2023-04-05T00:26:59.739Z,966.87
2023-04-05T00:27:59.839Z,966.83
2023-04-05T00:28:59.527Z,966.86
2023-04-05T00:29:59.651Z,966.88
2023-04-05T00:30:59.426Z,966.85
2023-04-05T00:31:59.732Z,966.88
2023-04-05T00:32:59.417Z,966.89
2023-04-05T00:34:00.708Z,966.86
2023-04-05T00:34:59.236Z,966.82
2023-04-05T00:35:59.507Z,966.87
2023-04-05T00:36:59.136Z,966.84
2023-04-05T00:37:59.299Z,966.82
2023-04-05T00:38:59.039Z,966.83
2023-04-05T00:40:00.141Z,966.84
2023-04-05T00:40:59.187Z,966.83
2023-04-05T00:41:59.131Z,966.81
2023-04-05T00:42:58.845Z,966.82
2023-04-05T00:43:58.936Z,966.81
2023-04-05T00:44:58.745Z,966.79
2023-04-05T00:45:58.959Z,966.77
2023-04-05T00:46:58.648Z,966.81
2023-04-05T00:47:58.765Z,966.79
2023-04-05T00:48:58.554Z,966.78
2023-04-05T00:49:59.795Z,966.79
2023-04-05T00:50:59.597Z,966.77
2023-04-05T00:51:59.671Z,966.76
2023-04-05T00:52:58.592Z,966.77
2023-04-05T00:53:58.313Z,966.78
2023-04-05T00:54:58.406Z,966.74
2023-04-05T00:55:58.218Z,966.71
2023-04-05T00:56:58.193Z,966.72
2023-04-05T00:57:59.446Z,966.76
2023-04-05T00:58:58.090Z,966.76
2023-04-05T00:59:58.235Z,966.74
2023-04-05T01:00:57.999Z,966.76
2023-04-05T01:01:59.066Z,966.73
2023-04-05T01:02:59.084Z,966.75
2023-04-05T01:03:58.100Z,966.70
2023-04-05T01:04:58.068Z,966.70
2023-04-05T01:05:57.732Z,966.72
2023-04-05T01:06:57.888Z,966.69
2023-04-05T01:07:57.630Z,966.73
2023-04-05T01:08:57.578Z,966.66
2023-04-05T01:09:57.692Z,966.68
2023-04-05T01:10:57.484Z,966.65
2023-04-05T01:11:57.705Z,966.68
2023-04-05T01:12:57.389Z,966.66
2023-04-05T01:13:57.506Z,966.63
2023-04-05T01:14:57.618Z,966.63
2023-04-05T01:15:57.568Z,966.62
2023-04-05T01:16:57.192Z,966.63
2023-04-05T01:17:57.484Z,966.63
2023-04-05T01:18:57.101Z,966.62
2023-04-05T01:19:57.288Z,966.62
2023-04-05T01:20:56.997Z,966.62
2023-04-05T01:22:18.170Z,966.65
2023-04-05T01:22:56.909Z,966.67
2023-04-05T01:23:57.255Z,966.66
2023-04-05T01:24:56.801Z,966.63
2023-04-05T01:25:56.881Z,966.63
2023-04-05T01:26:56.724Z,966.64
2023-04-05T01:27:56.797Z,966.58
2023-04-05T01:28:56.612Z,966.57
2023-04-05T01:29:56.913Z,966.58
2023-04-05T01:30:56.536Z,966.56
2023-04-05T01:31:56.732Z,966.53
2023-04-05T01:32:56.449Z,966.56
2023-04-05T01:33:56.532Z,966.49
2023-04-05T01:34:56.332Z,966.48
2023-04-05T01:35:56.331Z,966.49
2023-04-05T01:36:56.354Z,966.45
2023-04-05T01:37:56.178Z,966.47
2023-04-05T01:38:56.134Z,966.47
2023-04-05T01:39:56.271Z,966.47
2023-04-05T01:40:56.044Z,966.48
2023-04-05T01:41:57.306Z,966.46
2023-04-05T01:42:55.938Z,966.46
2023-04-05T01:43:56.218Z,966.51
2023-04-05T01:44:55.844Z,966.49
2023-04-05T01:45:56.927Z,966.50
2023-04-05T01:46:55.764Z,966.48
2023-04-05T01:47:56.193Z,966.50
2023-04-05T01:48:55.654Z,966.52
2023-04-05T01:49:55.739Z,966.43
2023-04-05T01:50:55.567Z,966.45
2023-04-05T01:51:55.764Z,966.47
2023-04-05T01:52:55.455Z,966.43
2023-04-05T01:53:55.585Z,966.42
2023-04-05T01:54:55.364Z,966.44
2023-04-05T01:55:55.464Z,966.42
2023-04-05T01:56:55.261Z,966.42
2023-04-05T01:57:55.485Z,966.41
2023-04-05T01:58:55.192Z,966.41
2023-04-05T01:59:55.502Z,966.43
2023-04-05T02:00:55.089Z,966.44
2023-04-05T02:01:56.747Z,966.43
2023-04-05T02:02:55.057Z,966.40
2023-04-05T02:03:55.270Z,966.42
2023-04-05T02:04:54.876Z,966.40
2023-04-05T02:05:55.131Z,966.37
2023-04-05T02:06:54.788Z,966.39
2023-04-05T02:07:55.962Z,966.39
2023-04-05T02:08:54.707Z,966.34
2023-04-05T02:09:54.855Z,966.30
2023-04-05T02:10:54.590Z,966.28
2023-04-05T02:11:54.582Z,966.20
2023-04-05T02:12:54.671Z,966.14
2023-04-05T02:13:54.446Z,966.16
2023-04-05T02:14:54.589Z,966.15
2023-04-05T02:15:54.401Z,966.11
2023-04-05T02:16:55.621Z,966.17
2023-04-05T02:17:54.424Z,966.06
2023-04-05T02:18:54.512Z,966.08
2023-04-05T02:19:54.161Z,966.06
2023-04-05T02:20:54.232Z,966.09
2023-04-05T02:21:54.063Z,966.10
2023-04-05T02:22:54.266Z,966.09
2023-04-05T02:23:53.960Z,966.15
2023-04-05T02:24:54.152Z,966.08
2023-04-05T02:25:53.869Z,966.05
2023-04-05T02:26:53.963Z,966.13
2023-04-05T02:27:53.982Z,966.06
2023-04-05T02:28:53.779Z,966.01
2023-04-05T02:29:53.819Z,966.06
2023-04-05T02:30:53.779Z,965.99
2023-04-05T02:31:53.856Z,966.00
2023-04-05T02:32:53.570Z,965.97
2023-04-05T02:33:53.599Z,966.01
2023-04-05T02:34:53.429Z,966.00
2023-04-05T02:35:53.702Z,966.04
2023-04-05T02:36:53.335Z,966.00
2023-04-05T02:37:53.486Z,966.01
2023-04-05T02:38:53.241Z,966.01
2023-04-05T02:39:53.230Z,966.02
2023-04-05T02:40:53.154Z,965.98
2023-04-05T02:41:53.159Z,966.00
2023-04-05T02:42:53.049Z,965.97
2023-04-05T02:43:53.173Z,966.00
2023-04-05T02:44:52.958Z,966.01
2023-04-05T02:45:52.994Z,966.06
2023-04-05T02:46:52.860Z,966.03
2023-04-05T02:47:53.012Z,966.01
2023-04-05T02:48:52.758Z,966.06
2023-04-05T02:49:53.868Z,966.01
2023-04-05T02:50:52.660Z,965.97
2023-04-05T02:51:54.650Z,966.01
2023-04-05T02:52:52.606Z,965.94
2023-04-05T02:53:53.550Z,965.99
2023-04-05T02:54:52.465Z,965.91
2023-04-05T02:55:52.421Z,965.91
2023-04-05T02:56:52.418Z,965.93
2023-04-05T02:57:53.366Z,965.93
2023-04-05T02:58:52.530Z,965.92
2023-04-05T02:59:52.250Z,965.91
2023-04-05T03:00:52.204Z,965.88
2023-04-05T03:01:52.132Z,965.92
2023-04-05T03:02:52.194Z,965.84
2023-04-05T03:03:53.250Z,965.83
2023-04-05T03:04:52.015Z,965.84
2023-04-05T03:05:52.102Z,965.81
2023-04-05T03:06:51.886Z,965.86
2023-04-05T03:07:51.842Z,965.78
2023-04-05T03:08:51.788Z,965.80
2023-04-05T03:09:51.812Z,965.78
2023-04-05T03:10:51.780Z,965.76
2023-04-05T03:11:51.726Z,965.77
2023-04-05T03:12:51.635Z,965.81
2023-04-05T03:13:51.555Z,965.77
2023-04-05T03:14:51.503Z,965.76
2023-04-05T03:15:51.553Z,965.77
2023-04-05T03:16:51.474Z,965.75
2023-04-05T03:17:51.580Z,965.73
2023-04-05T03:18:51.310Z,965.76
2023-04-05T03:19:51.253Z,965.73
2023-04-05T03:20:51.269Z,965.71
2023-04-05T03:21:51.389Z,965.75
2023-04-05T03:22:51.546Z,965.73
2023-04-05T03:23:51.199Z,965.70
2023-04-05T03:24:51.030Z,965.73
2023-04-05T03:25:50.969Z,965.75
2023-04-05T03:26:50.918Z,965.71
2023-04-05T03:27:50.890Z,965.72
2023-04-05T03:28:51.239Z,965.74
2023-04-05T03:29:50.781Z,965.72
2023-04-05T03:30:50.843Z,965.70
2023-04-05T03:31:50.825Z,965.71
2023-04-05T03:32:50.677Z,965.70
2023-04-05T03:33:50.665Z,965.70
2023-04-05T03:34:50.566Z,965.68
2023-04-05T03:35:50.683Z,965.70
2023-04-05T03:36:50.457Z,965.67
2023-04-05T03:37:50.392Z,965.69
2023-04-05T03:38:50.362Z,965.70
2023-04-05T03:39:50.508Z,965.72
2023-04-05T03:40:50.470Z,965.74
2023-04-05T03:41:50.415Z,965.75
2023-04-05T03:42:50.153Z,965.79
2023-04-05T03:43:50.104Z,965.76
2023-04-05T03:44:50.226Z,965.76
2023-04-05T03:45:50.067Z,965.74
2023-04-05T03:46:50.045Z,965.74
2023-04-05T03:47:50.150Z,965.70
2023-04-05T03:48:51.093Z,965.69
2023-04-05T03:49:49.832Z,965.65
2023-04-05T03:50:49.965Z,965.66
2023-04-05T03:51:49.723Z,965.63
2023-04-05T03:52:49.783Z,965.64
2023-04-05T03:53:49.619Z,965.65
2023-04-05T03:54:51.636Z,965.64
2023-04-05T03:55:49.603Z,965.67
2023-04-05T03:56:49.703Z,965.66
2023-04-05T03:57:49.429Z,965.67
2023-04-05T03:58:50.747Z,965.69
2023-04-05T03:59:49.350Z,965.69
2023-04-05T04:00:49.537Z,965.70
2023-04-05T04:01:49.268Z,965.69
2023-04-05T04:02:49.359Z,965.73
2023-04-05T04:03:49.136Z,965.67
2023-04-05T04:04:49.589Z,965.68
2023-04-05T04:05:49.074Z,965.68
2023-04-05T04:06:49.159Z,965.69
2023-04-05T04:07:48.957Z,965.68
2023-04-05T04:08:48.967Z,965.65
2023-04-05T04:09:48.841Z,965.65
2023-04-05T04:10:48.973Z,965.62
2023-04-05T04:11:49.811Z,965.64
2023-04-05T04:12:48.699Z,965.61
2023-04-05T04:13:48.645Z,965.61
2023-04-05T04:14:49.730Z,965.59
2023-04-05T04:15:48.554Z,965.58
2023-04-05T04:16:48.862Z,965.55
2023-04-05T04:17:48.524Z,965.55
2023-04-05T04:18:48.633Z,965.55
2023-04-05T04:19:48.354Z,965.56
2023-04-05T04:20:48.442Z,965.59
2023-04-05T04:21:48.270Z,965.52
2023-04-05T04:22:48.243Z,965.50
2023-04-05T04:23:48.470Z,965.49
2023-04-05T04:24:48.163Z,965.48
2023-04-05T04:25:48.278Z,965.47
2023-04-05T04:26:48.031Z,965.46
2023-04-05T04:27:48.096Z,965.44
2023-04-05T04:28:47.922Z,965.45
2023-04-05T04:29:48.026Z,965.50
2023-04-05T04:30:48.058Z,965.47
2023-04-05T04:31:48.051Z,965.51
2023-04-05T04:32:47.847Z,965.52
2023-04-05T04:33:47.927Z,965.52
2023-04-05T04:34:47.638Z,965.53
2023-04-05T04:35:47.753Z,965.52
2023-04-05T04:36:47.690Z,965.54
2023-04-05T04:37:47.673Z,965.52
2023-04-05T04:38:47.433Z,965.54
2023-04-05T04:39:47.451Z,965.53
2023-04-05T04:40:47.378Z,965.54
2023-04-05T04:41:47.468Z,965.52
2023-04-05T04:42:47.273Z,965.52
2023-04-05T04:43:47.282Z,965.52
2023-04-05T04:44:47.238Z,965.55
2023-04-05T04:45:48.528Z,965.53
2023-04-05T04:46:47.037Z,965.54
2023-04-05T04:47:47.191Z,965.61
2023-04-05T04:48:46.941Z,965.58
2023-04-05T04:49:47.123Z,965.60
2023-04-05T04:50:46.872Z,965.63
2023-04-05T04:51:47.031Z,965.68
2023-04-05T04:52:46.750Z,965.69
2023-04-05T04:53:48.155Z,965.67
2023-04-05T04:54:46.856Z,965.66
2023-04-05T04:55:46.603Z,965.66
2023-04-05T04:56:46.758Z,965.61
2023-04-05T04:57:46.504Z,965.62
2023-04-05T04:58:46.662Z,965.57
2023-04-05T04:59:46.425Z,965.56
2023-04-05T05:00:46.381Z,965.54
2023-04-05T05:01:46.302Z,965.60
2023-04-05T05:02:47.755Z,965.59
2023-04-05T05:03:46.236Z,965.61
2023-04-05T05:04:46.324Z,965.59
2023-04-05T05:05:46.118Z,965.62
2023-04-05T05:06:46.063Z,965.65
2023-04-05T05:07:46.022Z,965.63
2023-04-05T05:08:47.168Z,965.66
2023-04-05T05:09:45.922Z,965.67
2023-04-05T05:10:45.946Z,965.70
2023-04-05T05:11:45.813Z,965.71
2023-04-05T05:12:45.794Z,965.71
2023-04-05T05:13:48.546Z,965.68
2023-04-05T05:14:47.116Z,965.68
2023-04-05T05:15:45.624Z,965.67
2023-04-05T05:16:45.723Z,965.65
2023-04-05T05:17:45.613Z,965.69
2023-04-05T05:18:45.476Z,965.67
2023-04-05T05:19:45.423Z,965.63
2023-04-05T05:20:45.615Z,965.68
2023-04-05T05:21:46.497Z,965.66
2023-04-05T05:22:46.473Z,965.64
2023-04-05T05:23:45.235Z,965.61
2023-04-05T05:24:45.186Z,965.66
2023-04-05T05:25:45.136Z,965.63
2023-04-05T05:26:45.353Z,965.64
2023-04-05T05:27:45.039Z,965.66
2023-04-05T05:28:45.361Z,965.65
2023-04-05T05:29:44.938Z,965.66
2023-04-05T05:30:45.028Z,965.64
2023-04-05T05:31:47.030Z,965.67
2023-04-05T05:32:44.812Z,965.67
2023-04-05T05:33:44.998Z,965.66
2023-04-05T05:34:44.690Z,965.68
2023-04-05T05:35:46.879Z,965.68
2023-04-05T05:36:44.810Z,965.71
2023-04-05T05:37:44.542Z,965.76
2023-04-05T05:38:44.737Z,965.81
2023-04-05T05:39:44.491Z,965.81
2023-04-05T05:40:44.633Z,965.83
2023-04-05T05:41:44.341Z,965.83
2023-04-05T05:42:44.295Z,965.86
2023-04-05T05:43:44.258Z,965.88
2023-04-05T05:44:44.356Z,965.91
2023-04-05T05:45:44.424Z,965.94
2023-04-05T05:46:44.198Z,965.93
2023-04-05T05:47:44.091Z,965.92
2023-04-05T05:48:44.001Z,965.93
2023-04-05T05:49:43.952Z,965.96
2023-04-05T05:50:45.116Z,965.91
2023-04-05T05:51:43.891Z,965.94
2023-04-05T05:52:43.910Z,965.90
2023-04-05T05:53:43.755Z,965.94
2023-04-05T05:54:43.711Z,965.94
2023-04-05T05:55:43.668Z,965.92
2023-04-05T05:56:43.733Z,965.96
2023-04-05T05:57:43.581Z,965.97
2023-04-05T05:58:43.942Z,965.99
2023-04-05T05:59:43.460Z,965.96
2023-04-05T06:03:48.942Z,965.95
2023-04-05T06:04:47.398Z,965.94
2023-04-05T06:05:47.477Z,965.91
2023-04-05T06:06:47.489Z,965.95
2023-04-05T06:07:47.251Z,965.97
2023-04-05T06:08:48.318Z,965.91
2023-04-05T06:09:47.122Z,966.01
2023-04-05T06:10:47.307Z,965.99
2023-04-05T06:11:55.982Z,966.00
2023-04-05T06:12:47.285Z,965.94
2023-04-05T06:13:47.030Z,965.95
2023-04-05T06:14:46.901Z,965.95
2023-04-05T06:15:47.040Z,965.93
2023-04-05T06:16:46.902Z,965.93
2023-04-05T06:17:48.007Z,965.96
2023-04-05T06:18:46.677Z,965.98
2023-04-05T06:19:46.628Z,965.98
2023-04-05T06:20:46.772Z,965.98
2023-04-05T06:21:46.529Z,965.94
2023-04-05T06:22:46.596Z,965.96
2023-04-05T06:23:46.442Z,966.03
2023-04-05T06:24:46.496Z,965.99
2023-04-05T06:25:46.536Z,965.98
2023-04-05T06:26:48.352Z,965.97
2023-04-05T06:27:46.468Z,965.99
2023-04-05T06:28:46.420Z,966.00
2023-04-05T06:29:46.287Z,966.06
2023-04-05T06:30:46.228Z,966.06
2023-04-05T06:31:46.290Z,966.05
2023-04-05T06:32:45.999Z,966.08
2023-04-05T06:33:46.157Z,966.07
2023-04-05T06:34:45.890Z,966.07
2023-04-05T06:35:47.126Z,966.10
2023-04-05T06:36:45.793Z,966.10
2023-04-05T06:37:45.919Z,966.09
2023-04-05T06:38:45.879Z,966.10
2023-04-05T06:39:45.649Z,966.09
2023-04-05T06:40:45.683Z,966.08
2023-04-05T06:41:45.556Z,966.10
2023-04-05T06:43:06.796Z,966.13
2023-04-05T06:43:45.449Z,966.03
2023-04-05T06:44:46.536Z,966.02
2023-04-05T06:45:45.361Z,966.05
2023-04-05T06:46:45.524Z,966.05
2023-04-05T06:47:45.292Z,966.06
2023-04-05T06:48:45.450Z,966.08
2023-04-05T06:49:45.347Z,966.10
2023-04-05T06:50:45.109Z,966.10
2023-04-05T06:52:06.149Z,966.10
2023-04-05T06:52:45.342Z,966.06
2023-04-05T06:53:45.067Z,966.09
2023-04-05T06:54:44.917Z,966.04
2023-04-05T06:55:46.102Z,966.01
2023-04-05T06:56:44.820Z,965.97
2023-04-05T06:57:45.914Z,965.96
2023-04-05T06:58:44.768Z,966.00
2023-04-05T06:59:44.804Z,966.03
2023-04-05T07:00:44.630Z,966.02
2023-04-05T07:01:44.868Z,966.05
2023-04-05T07:02:44.566Z,966.04
2023-04-05T07:03:45.650Z,966.05
2023-04-05T07:04:46.695Z,966.11
2023-04-05T07:05:44.536Z,966.10
2023-04-05T07:06:44.338Z,966.11
2023-04-05T07:07:44.559Z,966.08
2023-04-05T07:08:44.263Z,966.08
2023-04-05T07:09:45.401Z,966.09
2023-04-05T07:10:44.153Z,966.06
2023-04-05T07:11:45.605Z,966.05
2023-04-05T07:12:44.149Z,966.06
2023-04-05T07:13:44.185Z,966.08
2023-04-05T07:14:43.980Z,966.04
2023-04-05T07:15:45.042Z,966.02
2023-04-05T07:16:43.856Z,966.04
2023-04-05T07:17:44.122Z,966.09
2023-04-05T07:18:46.230Z,966.12
2023-04-05T07:19:45.999Z,966.10
2023-04-05T07:20:43.737Z,966.12
2023-04-05T07:21:43.731Z,966.09
2023-04-05T07:22:43.617Z,966.10
2023-04-05T07:23:44.782Z,966.09
2023-04-05T07:24:43.478Z,966.08
2023-04-05T07:25:44.587Z,966.13
2023-04-05T07:26:43.382Z,966.08
2023-04-05T07:27:43.583Z,966.06
2023-04-05T07:28:43.425Z,966.05
2023-04-05T07:29:43.384Z,966.08
2023-04-05T07:30:43.317Z,966.08
2023-04-05T07:31:43.271Z,966.09
2023-04-05T07:32:43.113Z,966.09
2023-04-05T07:33:44.183Z,966.13
2023-04-05T07:34:43.025Z,966.11
2023-04-05T07:35:43.141Z,966.16
2023-04-05T07:36:42.923Z,966.13
2023-04-05T07:37:42.862Z,966.12
2023-04-05T07:38:42.811Z,966.13
2023-04-05T07:39:42.944Z,966.18
2023-04-05T07:40:43.168Z,966.15
2023-04-05T07:41:43.389Z,966.19
2023-04-05T07:42:42.620Z,966.19
2023-04-05T07:43:42.583Z,966.18
2023-04-05T07:44:42.646Z,966.20
2023-04-05T07:45:42.588Z,966.18
2023-04-05T07:46:42.471Z,966.18
2023-04-05T07:47:43.672Z,966.19
2023-04-05T07:48:42.345Z,966.20
2023-04-05T07:49:42.305Z,966.20
2023-04-05T07:50:42.775Z,966.23
2023-04-05T07:51:43.443Z,966.24
2023-04-05T07:52:42.173Z,966.21
2023-04-05T07:53:42.330Z,966.20
2023-04-05T07:54:42.088Z,966.22
2023-04-05T07:55:42.005Z,966.22
2023-04-05T07:56:41.974Z,966.22
2023-04-05T07:57:42.056Z,966.23
2023-04-05T07:58:41.868Z,966.23
2023-04-05T07:59:42.351Z,966.25
2023-04-05T08:00:41.983Z,966.27
2023-04-05T08:01:41.726Z,966.28
2023-04-05T08:02:41.775Z,966.25
2023-04-05T08:03:41.958Z,966.25
2023-04-05T08:04:41.608Z,966.27
2023-04-05T08:05:41.748Z,966.27
2023-04-05T08:06:41.605Z,966.28
2023-04-05T08:07:41.619Z,966.26
2023-04-05T08:08:41.410Z,966.26
2023-04-05T08:09:41.638Z,966.24
2023-04-05T08:10:41.504Z,966.30
2023-04-05T08:11:41.659Z,966.26
2023-04-05T08:12:41.214Z,966.31
2023-04-05T08:13:41.159Z,966.33
2023-04-05T08:14:41.121Z,966.29
2023-04-05T08:15:41.168Z,966.30
2023-04-05T08:16:41.269Z,966.33
2023-04-05T08:17:41.205Z,966.36
2023-04-05T08:18:40.919Z,966.32
2023-04-05T08:19:41.107Z,966.35
2023-04-05T08:20:40.963Z,966.37
2023-04-05T08:21:40.896Z,966.35
2023-04-05T08:22:40.968Z,966.33
2023-04-05T08:23:40.908Z,966.37
2023-04-05T08:24:40.768Z,966.34
2023-04-05T08:25:42.545Z,966.39
2023-04-05T08:26:40.545Z,966.39
2023-04-05T08:27:40.740Z,966.42
2023-04-05T08:28:40.529Z,966.39
2023-04-05T08:29:40.543Z,966.42
2023-04-05T08:30:40.564Z,966.41
2023-04-05T08:31:40.604Z,966.46
2023-04-05T08:32:40.292Z,966.42
2023-04-05T08:33:40.239Z,966.41
2023-04-05T08:34:40.584Z,966.42
2023-04-05T08:35:40.144Z,966.48
2023-04-05T08:37:02.302Z,966.46
2023-04-05T08:37:40.032Z,966.47
2023-04-05T08:38:39.981Z,966.46
2023-04-05T08:39:40.118Z,966.47
2023-04-05T08:40:40.166Z,966.53
2023-04-05T08:41:40.944Z,966.59
2023-04-05T08:42:39.788Z,966.61
2023-04-05T08:43:39.939Z,966.57
2023-04-05T08:44:39.700Z,966.63
2023-04-05T08:46:01.076Z,966.64
2023-04-05T08:46:39.642Z,966.64
2023-04-05T08:48:01.756Z,966.66
2023-04-05T08:48:40.545Z,966.74
2023-04-05T08:49:39.811Z,966.77
2023-04-05T08:50:39.722Z,966.74
2023-04-05T08:51:39.421Z,966.73
2023-04-05T08:52:39.702Z,966.71
2023-04-05T08:53:39.304Z,966.75
2023-04-05T08:54:40.436Z,966.73
2023-04-05T08:55:39.219Z,966.76
2023-04-05T08:56:39.178Z,966.73
2023-04-05T08:57:39.185Z,966.81
2023-04-05T08:58:40.354Z,966.82
2023-04-05T08:59:39.106Z,966.81
2023-04-05T09:00:39.317Z,966.88
2023-04-05T09:01:39.028Z,966.83
2023-04-05T09:02:39.068Z,966.87
2023-04-05T09:03:39.334Z,966.89
2023-04-05T09:04:38.969Z,966.93
2023-04-05T09:05:38.812Z,966.90
2023-04-05T09:06:38.989Z,966.91
2023-04-05T09:07:38.723Z,966.96
2023-04-05T09:08:39.932Z,966.96
2023-04-05T09:09:38.653Z,967.00
2023-04-05T09:10:40.000Z,966.98
2023-04-05T09:11:39.805Z,967.01
2023-04-05T09:12:40.771Z,967.05
2023-04-05T09:13:38.486Z,967.07
2023-04-05T09:14:38.653Z,967.02
2023-04-05T09:15:38.404Z,967.05
2023-04-05T09:16:38.725Z,966.97
2023-04-05T09:17:38.372Z,966.98
2023-04-05T09:18:39.488Z,966.98
2023-04-05T09:19:38.259Z,967.02
2023-04-05T09:20:38.515Z,967.00
2023-04-05T09:21:38.174Z,967.03
2023-04-05T09:22:59.589Z,967.03
2023-04-05T09:23:38.118Z,967.01
2023-04-05T09:24:39.344Z,967.05
2023-04-05T09:25:38.020Z,967.02
2023-04-05T09:26:38.111Z,966.98
2023-04-05T09:27:37.949Z,967.02
2023-04-05T09:28:38.160Z,966.96
2023-04-05T09:29:37.878Z,967.01
2023-04-05T09:30:38.157Z,967.01
2023-04-05T09:31:37.820Z,967.03
2023-04-05T09:32:38.048Z,967.04
2023-04-05T09:33:37.720Z,967.06
2023-04-05T09:34:37.986Z,967.06
2023-04-05T09:35:37.680Z,967.03
2023-04-05T09:36:37.770Z,967.02
2023-04-05T09:37:37.581Z,967.04
2023-04-05T09:38:37.795Z,967.08
2023-04-05T09:39:39.029Z,967.05
2023-04-05T09:40:37.464Z,967.01
2023-04-05T09:41:39.549Z,967.02
2023-04-05T09:42:37.392Z,967.00
2023-04-05T09:43:37.515Z,967.02
2023-04-05T09:44:39.655Z,967.02
2023-04-05T09:45:37.460Z,967.06
2023-04-05T09:46:37.991Z,967.07
2023-04-05T09:47:37.294Z,967.06
2023-04-05T09:48:37.349Z,967.00
2023-04-05T09:49:37.143Z,966.96
2023-04-05T09:50:38.472Z,967.00
2023-04-05T09:51:37.274Z,967.03
2023-04-05T09:52:37.274Z,966.99
2023-04-05T09:53:36.990Z,966.97
2023-04-05T09:54:37.078Z,966.98
2023-04-05T09:55:36.923Z,966.99
2023-04-05T09:56:37.272Z,966.99
2023-04-05T09:57:37.156Z,966.98
2023-04-05T09:58:37.003Z,966.95
2023-04-05T09:59:36.821Z,966.98
2023-04-05T10:00:37.024Z,967.00
2023-04-05T10:01:37.647Z,967.04
2023-04-05T10:02:36.984Z,967.02
2023-04-05T10:03:36.730Z,967.00
2023-04-05T10:04:36.760Z,967.01
2023-04-05T10:05:36.571Z,967.01
2023-04-05T10:06:36.702Z,966.96
2023-04-05T10:07:36.509Z,966.98
2023-04-05T10:08:37.591Z,967.00
2023-04-05T10:09:36.462Z,966.97
2023-04-05T10:10:36.551Z,966.97
2023-04-05T10:11:36.494Z,966.98
2023-04-05T10:12:36.324Z,966.99
2023-04-05T10:13:37.423Z,966.99
2023-04-05T10:14:36.267Z,966.97
2023-04-05T10:15:36.414Z,967.04
2023-04-05T10:16:36.245Z,967.02
2023-04-05T10:17:38.481Z,967.02
2023-04-05T10:18:36.118Z,966.99
2023-04-05T10:19:37.266Z,966.96
2023-04-05T10:20:36.065Z,967.00
2023-04-05T10:21:36.050Z,966.97
2023-04-05T10:22:36.011Z,966.91
2023-04-05T10:23:36.058Z,967.00
2023-04-05T10:24:35.916Z,967.03
2023-04-05T10:25:36.088Z,966.96
2023-04-05T10:26:35.850Z,966.99
2023-04-05T10:27:35.897Z,967.01
2023-04-05T10:28:35.880Z,966.94
2023-04-05T10:29:35.903Z,966.96
2023-04-05T10:30:35.714Z,966.95
2023-04-05T10:31:38.384Z,966.94
2023-04-05T10:32:35.805Z,966.93
2023-04-05T10:33:37.461Z,966.82
2023-04-05T10:34:35.666Z,966.91
2023-04-05T10:35:35.839Z,966.92
2023-04-05T10:36:35.590Z,966.91
2023-04-05T10:37:35.659Z,966.89
2023-04-05T10:38:35.493Z,966.96
2023-04-05T10:39:36.484Z,966.94
2023-04-05T10:40:35.587Z,966.95
2023-04-05T10:41:35.515Z,966.96
2023-04-05T10:42:37.427Z,966.96
2023-04-05T10:43:35.286Z,966.94
2023-04-05T10:44:35.412Z,966.96
2023-04-05T10:45:35.861Z,967.00
2023-04-05T10:46:35.420Z,966.99
2023-04-05T10:47:37.746Z,966.97
2023-04-05T10:48:35.103Z,966.97
2023-04-05T10:49:36.277Z,966.97
2023-04-05T10:50:35.053Z,966.96
2023-04-05T10:51:35.043Z,966.98
2023-04-05T10:52:35.094Z,966.98
2023-04-05T10:53:35.014Z,966.95
2023-04-05T10:54:36.081Z,967.00
2023-04-05T10:55:34.860Z,966.99
2023-04-05T10:56:58.013Z,966.98
2023-04-05T10:57:34.791Z,966.99
2023-04-05T10:58:34.820Z,967.01
2023-04-05T10:59:34.773Z,966.98
2023-04-05T11:00:34.795Z,966.98
2023-04-05T11:01:34.958Z,966.98
2023-04-05T11:02:35.855Z,966.98
2023-04-05T11:03:34.718Z,966.98
2023-04-05T11:04:34.590Z,966.96
2023-04-05T11:05:35.730Z,966.94
2023-04-05T11:06:34.636Z,966.96
2023-04-05T11:07:34.499Z,966.96
2023-04-05T11:08:35.476Z,966.91
2023-04-05T11:09:34.401Z,966.91
2023-04-05T11:10:34.523Z,966.93
2023-04-05T11:11:34.341Z,966.93
2023-04-05T11:12:34.476Z,966.92
2023-04-05T11:13:34.273Z,966.95
2023-04-05T11:14:35.330Z,966.94
2023-04-05T11:15:34.251Z,966.92
2023-04-05T11:16:34.199Z,966.94
2023-04-05T11:17:34.219Z,966.92
2023-04-05T11:18:34.319Z,966.88
2023-04-05T11:19:34.080Z,966.85
2023-04-05T11:20:34.130Z,966.81
2023-04-05T11:21:34.029Z,966.78
2023-04-05T11:22:33.978Z,966.81
2023-04-05T11:23:33.966Z,966.76
2023-04-05T11:24:34.639Z,966.75
2023-04-05T11:25:33.877Z,966.77
2023-04-05T11:26:33.962Z,966.74
2023-04-05T11:27:33.815Z,966.78
2023-04-05T11:28:33.811Z,966.77
2023-04-05T11:29:33.751Z,966.79
2023-04-05T11:30:33.791Z,966.73
2023-04-05T11:31:33.722Z,966.71
2023-04-05T11:32:55.026Z,966.68
2023-04-05T11:33:33.616Z,966.67
2023-04-05T11:34:33.826Z,966.70
2023-04-05T11:35:33.574Z,966.63
2023-04-05T11:36:35.688Z,966.65
2023-04-05T11:37:33.486Z,966.64
2023-04-05T11:38:34.785Z,966.58
2023-04-05T11:39:33.429Z,966.58
2023-04-05T11:40:33.458Z,966.54
2023-04-05T11:41:33.361Z,966.57
2023-04-05T11:42:33.370Z,966.55
2023-04-05T11:43:33.293Z,966.59
2023-04-05T11:44:33.289Z,966.62
2023-04-05T11:45:34.416Z,966.58
2023-04-05T11:46:33.259Z,966.58
2023-04-05T11:47:33.442Z,966.58
2023-04-05T11:48:33.131Z,966.58
2023-04-05T11:49:35.266Z,966.56
2023-04-05T11:50:35.325Z,966.55
2023-04-05T11:51:33.240Z,966.56
2023-04-05T11:52:33.008Z,966.52
2023-04-05T11:53:34.170Z,966.52
2023-04-05T11:54:32.938Z,966.55
2023-04-05T11:55:33.065Z,966.52
2023-04-05T11:56:32.907Z,966.53
2023-04-05T11:57:33.079Z,966.55
2023-04-05T11:58:32.809Z,966.54
2023-04-05T11:59:33.018Z,966.53
2023-04-05T12:00:32.747Z,966.49
2023-04-05T12:01:32.793Z,966.46
2023-04-05T12:02:34.015Z,966.49
2023-04-05T12:03:32.766Z,966.45
2023-04-05T12:04:32.638Z,966.46
2023-04-05T12:05:32.592Z,966.48
2023-04-05T12:06:32.727Z,966.45
2023-04-05T12:07:32.551Z,966.42
2023-04-05T12:08:32.513Z,966.40
2023-04-05T12:09:33.668Z,966.40
2023-04-05T12:10:32.425Z,966.39
2023-04-05T12:11:32.401Z,966.40
2023-04-05T12:12:33.537Z,966.42
2023-04-05T12:13:32.469Z,966.38
2023-04-05T12:14:32.305Z,966.38
2023-04-05T12:15:32.292Z,966.38
2023-04-05T12:16:33.345Z,966.38
2023-04-05T12:17:32.219Z,966.38
2023-04-05T12:18:32.303Z,966.38
2023-04-05T12:19:32.131Z,966.37
2023-04-05T12:20:33.236Z,966.33
2023-04-05T12:21:32.170Z,966.34
2023-04-05T12:22:32.130Z,966.33
2023-04-05T12:23:32.003Z,966.28
2023-04-05T12:24:32.142Z,966.30
2023-04-05T12:25:31.938Z,966.34
2023-04-05T12:26:32.159Z,966.32
2023-04-05T12:27:31.899Z,966.33
2023-04-05T12:28:33.193Z,966.29
2023-04-05T12:29:31.811Z,966.29
2023-04-05T12:30:31.981Z,966.33